createdAt,value
2019-03-31T00:00:01.550Z,8.30
2019-03-31T00:02:31.234Z,8.20
2019-03-31T00:05:01.095Z,8.10
2019-03-31T00:07:30.882Z,8.00
2019-03-31T00:10:00.557Z,7.90
2019-03-31T00:12:30.288Z,7.90
2019-03-31T00:15:00.789Z,7.70
2019-03-31T00:17:30.525Z,7.70
2019-03-31T00:20:00.374Z,7.70
2019-03-31T00:22:30.173Z,7.70
2019-03-31T00:24:59.832Z,7.70
2019-03-31T00:27:29.689Z,7.60
2019-03-31T00:29:59.353Z,7.50
2019-03-31T00:32:32.283Z,7.50
2019-03-31T00:35:02.287Z,7.60
2019-03-31T00:37:32.174Z,7.50
2019-03-31T00:40:01.815Z,7.50
2019-03-31T00:42:31.497Z,7.60
2019-03-31T00:45:01.582Z,7.60
2019-03-31T00:47:31.257Z,7.60
2019-03-31T00:50:00.946Z,7.60
2019-03-31T00:52:30.654Z,7.60
2019-03-31T00:55:00.474Z,7.70
2019-03-31T00:57:30.316Z,7.70
2019-03-31T01:00:00.036Z,7.90
2019-03-31T01:02:32.206Z,7.90
2019-03-31T01:05:06.087Z,7.90
2019-03-31T01:07:38.090Z,7.90
2019-03-31T01:10:09.171Z,8.00
2019-03-31T01:12:39.882Z,7.90
2019-03-31T01:15:16.008Z,8.00
2019-03-31T01:17:46.164Z,8.00
2019-03-31T01:20:15.804Z,8.00
2019-03-31T01:22:45.815Z,7.90
2019-03-31T01:25:18.235Z,7.90
2019-03-31T01:27:47.871Z,7.80
2019-03-31T01:30:19.317Z,7.70
2019-03-31T01:32:49.189Z,7.70
2019-03-31T01:35:19.794Z,7.70
2019-03-31T01:37:52.108Z,7.70
2019-03-31T01:40:29.041Z,7.70
2019-03-31T01:42:59.181Z,7.80
2019-03-31T01:45:28.935Z,7.80
2019-03-31T01:47:58.723Z,7.70
2019-03-31T01:50:30.211Z,7.70
2019-03-31T01:52:59.919Z,7.70
2019-03-31T01:55:31.860Z,7.60
2019-03-31T01:58:01.564Z,7.60
2019-03-31T02:00:37.846Z,7.60
2019-03-31T02:03:07.516Z,7.70
2019-03-31T02:05:39.480Z,7.60
2019-03-31T02:08:10.715Z,7.60
2019-03-31T02:10:40.296Z,7.50
2019-03-31T02:13:13.106Z,7.50
2019-03-31T02:15:45.155Z,7.50
2019-03-31T02:18:15.456Z,7.50
2019-03-31T02:20:46.920Z,7.40
2019-03-31T02:23:16.654Z,7.40
2019-03-31T02:25:46.310Z,7.50
2019-03-31T02:28:16.002Z,7.50
2019-03-31T02:30:46.621Z,7.50
2019-03-31T02:33:16.630Z,7.60
2019-03-31T02:35:47.631Z,7.50
2019-03-31T02:38:19.400Z,7.50
2019-03-31T02:40:49.085Z,7.50
2019-03-31T02:43:19.669Z,7.50
2019-03-31T02:45:52.447Z,7.40
2019-03-31T02:48:22.096Z,7.40
2019-03-31T02:50:52.449Z,7.40
2019-03-31T02:53:22.520Z,7.50
2019-03-31T02:55:53.576Z,7.50
2019-03-31T02:58:23.314Z,7.40
2019-03-31T03:00:53.901Z,7.40
2019-03-31T03:03:23.584Z,7.40
2019-03-31T03:05:55.195Z,7.40
2019-03-31T03:08:26.839Z,7.40
2019-03-31T03:11:00.893Z,7.40
2019-03-31T03:13:34.899Z,7.40
2019-03-31T03:16:18.557Z,7.30
2019-03-31T03:18:49.386Z,7.30
2019-03-31T03:21:23.724Z,7.40
2019-03-31T03:23:51.934Z,7.30
2019-03-31T03:26:21.866Z,7.40
2019-03-31T03:28:52.243Z,7.40
2019-03-31T03:31:22.012Z,7.30
2019-03-31T03:33:53.552Z,7.40
2019-03-31T03:36:23.466Z,7.40
2019-03-31T03:38:53.118Z,7.40
2019-03-31T03:41:22.718Z,7.40
2019-03-31T03:43:56.344Z,7.40
2019-03-31T03:46:24.475Z,7.40
2019-03-31T03:48:54.218Z,7.30
2019-03-31T03:51:23.946Z,7.30
2019-03-31T03:53:55.083Z,7.30
2019-03-31T03:56:28.905Z,7.40
2019-03-31T03:58:56.578Z,7.50
2019-03-31T04:01:30.514Z,7.50
2019-03-31T04:04:00.270Z,7.60
2019-03-31T04:06:30.578Z,7.60
2019-03-31T04:09:00.257Z,7.70
2019-03-31T04:11:30.740Z,7.80
2019-03-31T04:14:00.476Z,8.00
2019-03-31T04:16:30.151Z,8.10
2019-03-31T04:18:59.796Z,8.10
2019-03-31T04:21:29.713Z,8.10
2019-03-31T04:23:59.526Z,8.10
2019-03-31T04:26:29.239Z,8.10
2019-03-31T04:29:01.286Z,8.00
2019-03-31T04:31:31.338Z,8.00
2019-03-31T04:34:01.032Z,8.00
2019-03-31T04:36:32.032Z,8.00
2019-03-31T04:39:03.699Z,7.90
2019-03-31T04:41:33.450Z,7.90
2019-03-31T04:44:03.090Z,7.90
2019-03-31T04:46:32.640Z,7.90
2019-03-31T04:49:02.304Z,7.80
2019-03-31T04:51:31.962Z,7.80
2019-03-31T04:54:01.691Z,7.80
2019-03-31T04:56:31.627Z,7.80
2019-03-31T04:59:01.301Z,7.70
2019-03-31T05:01:30.984Z,7.70
2019-03-31T05:04:04.838Z,7.70
2019-03-31T05:06:34.071Z,7.70
2019-03-31T05:09:05.276Z,7.80
2019-03-31T05:11:34.974Z,7.70
2019-03-31T05:14:04.661Z,7.80
2019-03-31T05:16:34.475Z,7.80
2019-03-31T05:19:04.170Z,7.90
2019-03-31T05:21:35.220Z,7.90
2019-03-31T05:24:07.998Z,7.90
2019-03-31T05:26:37.849Z,7.90
2019-03-31T05:29:07.474Z,7.90
2019-03-31T05:31:39.141Z,7.90
2019-03-31T05:34:18.884Z,7.90
2019-03-31T05:36:43.273Z,7.90
2019-03-31T05:39:14.467Z,7.90
2019-03-31T05:41:46.200Z,8.00
2019-03-31T05:44:17.278Z,8.00
2019-03-31T05:46:46.940Z,8.10
2019-03-31T05:49:17.106Z,8.10
2019-03-31T05:51:49.213Z,8.20
2019-03-31T05:54:19.164Z,8.20
2019-03-31T05:56:48.900Z,8.20
2019-03-31T05:59:18.595Z,8.20
2019-03-31T06:01:48.282Z,8.20
2019-03-31T06:04:32.684Z,8.30
2019-03-31T06:06:51.210Z,8.30
2019-03-31T06:09:20.998Z,8.30
2019-03-31T06:11:53.425Z,8.30
2019-03-31T06:14:22.082Z,8.30
2019-03-31T06:16:54.549Z,8.40
2019-03-31T06:19:24.195Z,8.40
2019-03-31T06:21:53.990Z,8.50
2019-03-31T06:24:23.681Z,8.50
2019-03-31T06:26:53.824Z,8.60
2019-03-31T06:29:23.918Z,8.60
2019-03-31T06:31:53.579Z,8.70
2019-03-31T06:34:24.802Z,8.70
2019-03-31T06:36:54.611Z,8.80
2019-03-31T06:39:25.251Z,8.80
2019-03-31T06:41:54.899Z,8.80
2019-03-31T06:44:26.005Z,8.80
2019-03-31T06:46:56.243Z,8.80
2019-03-31T06:49:26.953Z,8.80
2019-03-31T06:51:57.263Z,8.80
2019-03-31T06:54:27.640Z,8.80
2019-03-31T06:56:59.530Z,8.80
2019-03-31T06:59:29.551Z,8.80
2019-03-31T07:02:02.740Z,8.80
2019-03-31T07:04:31.448Z,8.80
2019-03-31T07:07:02.087Z,8.70
2019-03-31T07:09:32.247Z,8.70
2019-03-31T07:12:01.985Z,8.70
2019-03-31T07:14:31.675Z,8.70
2019-03-31T07:17:01.380Z,8.70
2019-03-31T07:19:32.061Z,8.70
2019-03-31T07:22:02.592Z,8.70
2019-03-31T07:24:32.222Z,8.60
2019-03-31T07:27:02.726Z,8.70
2019-03-31T07:29:32.486Z,8.70
2019-03-31T07:32:02.580Z,8.70
2019-03-31T07:34:32.544Z,8.70
2019-03-31T07:37:02.264Z,8.70
2019-03-31T07:39:32.976Z,8.80
2019-03-31T07:42:03.095Z,8.80
2019-03-31T07:44:33.023Z,8.80
2019-03-31T07:47:02.655Z,9.00
2019-03-31T07:49:34.687Z,9.10
2019-03-31T07:52:06.449Z,9.10
2019-03-31T07:54:36.431Z,9.10
2019-03-31T07:57:07.143Z,9.10
2019-03-31T07:59:36.982Z,9.20
2019-03-31T08:02:06.875Z,9.10
2019-03-31T08:04:37.314Z,9.20
2019-03-31T08:07:06.965Z,9.10
2019-03-31T08:09:36.689Z,9.20
2019-03-31T08:12:06.352Z,9.20
2019-03-31T08:14:36.511Z,9.20
2019-03-31T08:17:06.605Z,9.20
2019-03-31T08:19:36.305Z,9.20
2019-03-31T08:22:06.037Z,9.20
2019-03-31T08:24:46.876Z,9.20
2019-03-31T08:27:16.910Z,9.20
2019-03-31T08:29:55.377Z,9.20
2019-03-31T08:32:18.315Z,9.20
2019-03-31T08:34:50.755Z,9.20
2019-03-31T08:37:21.900Z,9.20
2019-03-31T08:39:53.218Z,9.20
2019-03-31T08:42:22.879Z,9.30
2019-03-31T08:44:52.734Z,9.30
2019-03-31T08:47:22.415Z,9.30
2019-03-31T08:49:52.551Z,9.20
2019-03-31T08:52:22.215Z,9.20
2019-03-31T08:54:51.926Z,9.30
2019-03-31T08:57:21.756Z,9.30
2019-03-31T08:59:51.469Z,9.20
2019-03-31T09:02:26.602Z,9.30
2019-03-31T09:04:56.370Z,9.30
2019-03-31T09:07:26.106Z,9.30
2019-03-31T09:09:55.789Z,9.40
2019-03-31T09:12:25.453Z,9.30
2019-03-31T09:14:55.143Z,9.30
2019-03-31T09:17:24.958Z,9.30
2019-03-31T09:19:54.865Z,9.40
2019-03-31T09:22:25.792Z,9.40
2019-03-31T09:24:56.295Z,9.40
2019-03-31T09:27:26.958Z,9.40
2019-03-31T09:29:56.767Z,9.50
2019-03-31T09:32:26.810Z,9.50
2019-03-31T09:34:56.392Z,9.60
2019-03-31T09:37:26.140Z,9.60
2019-03-31T09:39:58.017Z,9.60
2019-03-31T09:42:27.672Z,9.50
2019-03-31T09:45:00.947Z,9.50
2019-03-31T09:47:30.590Z,9.40
2019-03-31T09:50:00.345Z,9.50
2019-03-31T09:52:32.549Z,9.50
2019-03-31T09:55:07.390Z,9.50
2019-03-31T09:57:37.470Z,9.60
2019-03-31T10:00:13.884Z,9.70
2019-03-31T10:02:43.542Z,9.90
2019-03-31T10:05:13.489Z,10.00
2019-03-31T10:07:43.174Z,9.90
2019-03-31T10:10:30.412Z,10.00
2019-03-31T10:13:00.270Z,10.10
2019-03-31T10:15:29.918Z,10.30
2019-03-31T10:17:59.655Z,10.40
2019-03-31T10:20:31.431Z,10.50
2019-03-31T10:23:04.655Z,10.60
2019-03-31T10:25:37.224Z,10.70
2019-03-31T10:28:09.843Z,10.70
2019-03-31T10:30:40.083Z,10.80
2019-03-31T10:33:09.854Z,10.90
2019-03-31T10:35:42.865Z,11.20
2019-03-31T10:38:12.820Z,11.40
2019-03-31T10:40:45.641Z,11.50
2019-03-31T10:43:15.297Z,11.50
2019-03-31T10:45:45.603Z,11.40
2019-03-31T10:48:20.615Z,11.40
2019-03-31T10:50:50.748Z,11.60
2019-03-31T10:53:20.472Z,11.80
2019-03-31T10:55:50.211Z,11.80
2019-03-31T10:58:21.254Z,12.20
2019-03-31T11:00:50.950Z,12.40
2019-03-31T11:03:20.637Z,12.80
2019-03-31T11:05:50.368Z,13.20
2019-03-31T11:08:20.746Z,13.80
2019-03-31T11:10:50.814Z,14.00
2019-03-31T11:13:25.182Z,14.30
2019-03-31T11:15:57.598Z,14.50
2019-03-31T11:18:27.854Z,15.10
2019-03-31T11:20:59.410Z,15.30
2019-03-31T11:23:30.595Z,15.30
2019-03-31T11:26:00.447Z,15.50
2019-03-31T11:28:30.147Z,15.90
2019-03-31T11:30:59.894Z,15.70
2019-03-31T11:33:31.457Z,15.70
2019-03-31T11:36:01.119Z,15.60
2019-03-31T11:38:31.051Z,16.30
2019-03-31T11:41:00.723Z,16.80
2019-03-31T11:43:30.427Z,17.10
2019-03-31T11:46:00.130Z,17.30
2019-03-31T11:48:29.841Z,16.90
2019-03-31T11:51:00.521Z,17.70
2019-03-31T11:53:31.052Z,17.60
2019-03-31T11:56:00.719Z,17.10
2019-03-31T11:58:32.225Z,17.00
2019-03-31T12:01:02.597Z,16.60
2019-03-31T12:03:32.312Z,16.50
2019-03-31T12:06:01.966Z,16.70
2019-03-31T12:08:31.722Z,16.00
2019-03-31T12:11:01.752Z,15.90
2019-03-31T12:13:31.348Z,15.60
2019-03-31T12:16:02.661Z,15.70
2019-03-31T12:18:32.331Z,15.30
2019-03-31T12:21:02.008Z,15.40
2019-03-31T12:23:32.146Z,15.30
2019-03-31T12:26:02.428Z,15.20
2019-03-31T12:28:33.816Z,15.00
2019-03-31T12:31:05.349Z,15.10
2019-03-31T12:33:35.300Z,15.50
2019-03-31T12:36:07.365Z,15.90
2019-03-31T12:38:37.078Z,15.70
2019-03-31T12:41:06.766Z,15.50
2019-03-31T12:43:43.879Z,15.40
2019-03-31T12:46:13.558Z,15.70
2019-03-31T12:48:47.209Z,15.80
2019-03-31T12:51:17.292Z,15.80
2019-03-31T12:53:51.070Z,15.90
2019-03-31T12:56:20.988Z,15.50
2019-03-31T12:58:51.910Z,15.70
2019-03-31T13:01:21.578Z,15.80
2019-03-31T13:03:51.377Z,15.70
2019-03-31T13:06:23.604Z,15.70
2019-03-31T13:08:53.310Z,15.60
2019-03-31T13:11:22.973Z,15.80
2019-03-31T13:13:52.682Z,16.00
2019-03-31T13:16:22.393Z,15.80
2019-03-31T13:18:52.296Z,15.90
2019-03-31T13:21:21.959Z,16.20
2019-03-31T13:23:54.128Z,16.40
2019-03-31T13:26:24.144Z,16.60
2019-03-31T13:28:54.310Z,16.60
2019-03-31T13:31:24.023Z,16.40
2019-03-31T13:33:53.792Z,16.70
2019-03-31T13:36:23.563Z,16.70
2019-03-31T13:38:53.300Z,16.70
2019-03-31T13:41:22.955Z,16.50
2019-03-31T13:43:52.677Z,16.20
2019-03-31T13:46:45.352Z,16.20
2019-03-31T13:49:17.120Z,16.20
2019-03-31T13:51:47.068Z,15.80
2019-03-31T13:54:16.732Z,15.90
2019-03-31T13:56:48.856Z,16.10
2019-03-31T13:59:17.834Z,15.80
2019-03-31T14:01:47.751Z,15.70
2019-03-31T14:04:21.320Z,16.00
2019-03-31T14:06:51.092Z,16.10
2019-03-31T14:09:23.409Z,16.10
2019-03-31T14:11:56.575Z,16.30
2019-03-31T14:14:27.377Z,16.30
2019-03-31T14:16:57.077Z,16.40
2019-03-31T14:19:26.916Z,16.40
2019-03-31T14:21:58.836Z,16.10
2019-03-31T14:24:28.504Z,16.10
2019-03-31T14:26:58.191Z,16.40
2019-03-31T14:29:30.034Z,16.30
2019-03-31T14:32:01.379Z,16.30
2019-03-31T14:34:31.497Z,16.50
2019-03-31T14:37:05.963Z,16.20
2019-03-31T14:39:36.885Z,16.30
2019-03-31T14:42:06.559Z,16.20
2019-03-31T14:44:36.404Z,16.50
2019-03-31T14:47:07.649Z,16.60
2019-03-31T14:49:37.339Z,16.90
2019-03-31T14:52:07.405Z,16.70
2019-03-31T14:54:41.779Z,17.30
2019-03-31T14:57:11.701Z,17.70
2019-03-31T14:59:43.628Z,17.70
2019-03-31T15:02:13.790Z,17.70
2019-03-31T15:04:44.866Z,17.60
2019-03-31T15:07:16.450Z,17.70
2019-03-31T15:09:46.384Z,17.50
2019-03-31T15:12:16.128Z,17.90
2019-03-31T15:14:45.792Z,17.80
2019-03-31T15:17:16.584Z,18.10
2019-03-31T15:19:46.302Z,17.70
2019-03-31T15:22:18.320Z,17.80
2019-03-31T15:24:50.920Z,17.80
2019-03-31T15:27:20.594Z,17.80
2019-03-31T15:29:50.227Z,17.80
2019-03-31T15:32:20.172Z,17.70
2019-03-31T15:34:50.048Z,17.70
2019-03-31T15:37:19.609Z,18.20
2019-03-31T15:39:49.312Z,18.10
2019-03-31T15:42:21.981Z,18.00
2019-03-31T15:44:52.087Z,18.20
2019-03-31T15:47:21.829Z,17.90
2019-03-31T15:49:53.963Z,17.50
2019-03-31T15:52:28.641Z,17.70
2019-03-31T15:55:10.208Z,17.50
2019-03-31T15:57:45.195Z,17.20
2019-03-31T16:00:15.613Z,16.70
2019-03-31T16:02:45.762Z,17.40
2019-03-31T16:05:16.396Z,17.40
2019-03-31T16:07:46.886Z,17.30
2019-03-31T16:10:20.924Z,17.40
2019-03-31T16:12:50.618Z,17.40
2019-03-31T16:15:20.456Z,17.20
2019-03-31T16:17:54.696Z,17.40
2019-03-31T16:20:23.693Z,17.10
2019-03-31T16:22:55.057Z,17.10
2019-03-31T16:25:33.123Z,17.00
2019-03-31T16:28:02.747Z,16.70
2019-03-31T16:30:33.914Z,16.30
2019-03-31T16:33:06.630Z,16.10
2019-03-31T16:35:34.073Z,16.20
2019-03-31T16:38:03.871Z,16.40
2019-03-31T16:40:33.305Z,15.90
2019-03-31T16:43:08.409Z,16.00
2019-03-31T16:45:41.507Z,15.80
2019-03-31T16:48:11.102Z,15.70
2019-03-31T16:50:42.788Z,15.20
2019-03-31T16:53:12.030Z,14.60
2019-03-31T16:55:43.179Z,14.70
2019-03-31T16:58:12.363Z,14.60
2019-03-31T17:00:45.012Z,14.20
2019-03-31T17:03:14.110Z,14.10
2019-03-31T17:05:43.208Z,13.80
2019-03-31T17:08:12.457Z,13.40
2019-03-31T17:10:42.970Z,13.50
2019-03-31T17:13:12.090Z,13.20
2019-03-31T17:15:42.233Z,13.10
2019-03-31T17:18:11.351Z,13.00
2019-03-31T17:20:40.920Z,12.80
2019-03-31T17:23:10.187Z,12.60
2019-03-31T17:25:39.420Z,12.60
2019-03-31T17:28:10.322Z,12.40
2019-03-31T17:30:44.008Z,12.10
2019-03-31T17:33:13.044Z,12.00
2019-03-31T17:35:43.595Z,12.00
2019-03-31T17:38:12.742Z,11.90
2019-03-31T17:40:44.185Z,11.80
2019-03-31T17:43:13.322Z,11.60
2019-03-31T17:45:42.762Z,11.60
2019-03-31T17:48:11.901Z,11.50
2019-03-31T17:50:41.634Z,11.30
2019-03-31T17:53:13.557Z,11.30
2019-03-31T17:55:42.682Z,11.20
2019-03-31T17:58:11.935Z,11.00
2019-03-31T18:00:43.641Z,10.90
2019-03-31T18:03:15.569Z,10.90
2019-03-31T18:05:46.359Z,10.80
2019-03-31T18:08:15.537Z,10.60
2019-03-31T18:10:44.665Z,10.50
2019-03-31T18:13:14.964Z,10.40
2019-03-31T18:15:45.849Z,10.30
2019-03-31T18:18:15.013Z,10.20
2019-03-31T18:20:44.457Z,10.10
2019-03-31T18:23:13.893Z,10.00
2019-03-31T18:25:46.224Z,10.00
2019-03-31T18:28:15.439Z,9.90
2019-03-31T18:30:44.454Z,9.80
2019-03-31T18:33:14.580Z,9.80
2019-03-31T18:35:43.720Z,9.70
2019-03-31T18:38:12.828Z,9.60
2019-03-31T18:40:42.442Z,9.50
2019-03-31T18:43:13.648Z,9.50
2019-03-31T18:45:44.410Z,9.40
2019-03-31T18:48:16.200Z,9.40
2019-03-31T18:50:45.433Z,9.40
2019-03-31T18:53:19.974Z,9.30
2019-03-31T18:56:09.364Z,9.30
2019-03-31T18:58:54.250Z,9.20
2019-03-31T19:01:52.316Z,9.10
2019-03-31T19:04:40.990Z,9.00
2019-03-31T19:07:36.512Z,8.90
2019-03-31T19:10:28.223Z,8.90
2019-03-31T19:13:25.790Z,8.80
2019-03-31T19:16:13.995Z,8.80
2019-03-31T19:19:02.193Z,8.80
2019-03-31T19:21:48.350Z,8.80
2019-03-31T19:24:33.351Z,8.70
2019-03-31T19:27:19.601Z,8.70
2019-03-31T19:30:16.769Z,8.70
2019-03-31T19:33:05.035Z,8.60
2019-03-31T19:35:51.865Z,8.60
2019-03-31T19:38:38.883Z,8.50
2019-03-31T19:41:20.562Z,8.50
2019-03-31T19:44:04.251Z,8.50
2019-03-31T19:46:41.539Z,8.40
2019-03-31T19:49:32.108Z,8.40
2019-03-31T19:52:29.829Z,8.40
2019-03-31T19:55:14.912Z,8.30
2019-03-31T19:58:01.992Z,8.40
2019-03-31T20:01:06.956Z,8.30
2019-03-31T20:03:55.148Z,8.30
2019-03-31T20:06:41.259Z,8.20
2019-03-31T20:09:22.874Z,8.20
2019-03-31T20:12:02.976Z,8.10
2019-03-31T20:14:50.522Z,8.10
2019-03-31T20:17:40.056Z,8.00
2019-03-31T20:20:38.652Z,8.00
2019-03-31T20:23:29.849Z,7.90
2019-03-31T20:26:18.079Z,7.90
2019-03-31T20:29:16.419Z,7.80
2019-03-31T20:32:10.373Z,7.80
2019-03-31T20:34:53.852Z,7.80
2019-03-31T20:37:57.326Z,7.70
2019-03-31T20:40:32.267Z,7.70
2019-03-31T20:43:13.997Z,7.70
2019-03-31T20:45:43.244Z,7.60
2019-03-31T20:48:12.366Z,7.60
2019-03-31T20:50:41.540Z,7.50
2019-03-31T20:53:10.750Z,7.40
2019-03-31T20:55:41.632Z,7.40
2019-03-31T20:58:15.234Z,7.40
2019-03-31T21:00:46.185Z,7.40
2019-03-31T21:03:15.308Z,7.30
2019-03-31T21:05:46.293Z,7.30
2019-03-31T21:08:15.592Z,7.30
2019-03-31T21:10:56.223Z,7.30
2019-03-31T21:13:25.396Z,7.20
2019-03-31T21:15:54.605Z,7.20
2019-03-31T21:18:23.674Z,7.20
2019-03-31T21:20:53.851Z,7.20
2019-03-31T21:23:23.046Z,7.20
2019-03-31T21:25:54.230Z,7.10
2019-03-31T21:28:39.551Z,7.10
2019-03-31T21:31:10.841Z,7.10
2019-03-31T21:33:39.948Z,7.00
2019-03-31T21:36:11.521Z,7.00
2019-03-31T21:38:40.699Z,6.90
2019-03-31T21:41:10.025Z,7.00
2019-03-31T21:43:39.305Z,6.80
2019-03-31T21:46:08.433Z,6.80
2019-03-31T21:48:38.109Z,6.80
2019-03-31T21:51:08.954Z,6.80
2019-03-31T21:53:38.096Z,6.80
2019-03-31T21:56:07.320Z,6.70
2019-03-31T21:58:36.523Z,6.70
2019-03-31T22:01:05.815Z,6.60
2019-03-31T22:03:39.516Z,6.60
2019-03-31T22:06:09.876Z,6.60
2019-03-31T22:08:40.146Z,6.50
2019-03-31T22:11:09.260Z,6.50
2019-03-31T22:13:39.500Z,6.20
2019-03-31T22:16:10.737Z,6.10
2019-03-31T22:18:41.850Z,6.00
2019-03-31T22:21:12.707Z,6.00
2019-03-31T22:23:57.363Z,6.00
2019-03-31T22:26:19.883Z,5.90
2019-03-31T22:28:51.655Z,5.90
2019-03-31T22:31:20.890Z,5.90
2019-03-31T22:33:50.492Z,5.80
2019-03-31T22:36:23.552Z,5.70
2019-03-31T22:38:53.264Z,5.60
2019-03-31T22:41:24.260Z,5.60
2019-03-31T22:43:53.355Z,5.60
2019-03-31T22:46:24.778Z,5.60
2019-03-31T22:48:57.565Z,5.60
2019-03-31T22:51:26.659Z,5.50
2019-03-31T22:53:55.919Z,5.50
2019-03-31T22:56:25.156Z,5.40
2019-03-31T22:58:54.265Z,5.40
2019-03-31T23:01:23.365Z,5.30
2019-03-31T23:03:52.899Z,5.30
2019-03-31T23:06:22.072Z,5.30
2019-03-31T23:08:51.188Z,5.30
2019-03-31T23:11:20.270Z,5.30
2019-03-31T23:13:50.988Z,5.30
2019-03-31T23:16:22.245Z,5.20
2019-03-31T23:18:53.995Z,5.10
2019-03-31T23:21:24.054Z,5.10
2019-03-31T23:23:53.198Z,5.20
2019-03-31T23:26:22.406Z,5.00
2019-03-31T23:28:53.908Z,4.80
2019-03-31T23:31:42.885Z,4.80
2019-03-31T23:34:14.706Z,5.00
2019-03-31T23:36:48.391Z,5.00
2019-03-31T23:39:17.586Z,4.90
2019-03-31T23:41:48.886Z,4.80
2019-03-31T23:44:18.517Z,4.60
2019-03-31T23:46:48.033Z,4.70
2019-03-31T23:49:18.507Z,4.70
2019-03-31T23:51:47.614Z,4.70
2019-03-31T23:54:16.971Z,4.70
2019-03-31T23:56:46.055Z,4.60
2019-03-31T23:59:16.549Z,4.60
